Ezeiza, Argentina

2:25 PM ART on August 28, 2015 (GMT -0300)
Ezeiza International Ministro Pistarini | | Change Station
CLOSE
Current Station
Airport
Location: Ezeiza,
Elevation: 66 ft
Nearby Weather Stations

Elev 66 ft 34.82 °S, 58.54 °W | Updated 25 minutes ago

Clear
Clear
75 °F
Feels Like 75 °F
N
18
Wind Variable Wind from North
Gusts 30 mph

Today
High -- | Low -- °F
--% Chance of Precip.
Yesterday
High -- | Low -- °F
Precip. -- in
7:18 AM 6:32 PM
Waxing Gibbous, 98% visible
Pressure 29.89 in
Visibility -9999.0 miles
Clouds
Dew Point 37 °F
Humidity 25%
Rainfall 0.00 in
Snow Depth Not available.
UV Not available.
Pollen Not available.
Air Quality Not available.
Flu Activity Not available.
METAR SAEZ 281700Z 35016G26KT 300V030 CAVOK 24/03 Q1012
Pressure 29.89 in
Visibility -9999.0 miles
Clouds
Dew Point 37 °F
Humidity 25%
Rainfall 0.00 in
Snow Depth Not available.
UV Not available.
Pollen Not available.
Air Quality Not available.
Flu Activity Not available.
METAR SAEZ 281700Z 35016G26KT 300V030 CAVOK 24/03 Q1012

10-Day Weather Forecast

×

Almanac

Astronomy

Aug. 28, 2015 Rise Set
Actual Time
Civil Twilight
Nautical Twilight
Astronomical Twilight
Moon
Length of Visible Light
Length of Day
Tomorrow will be .
, % of the Moon is Illuminated

Today's Extremes

Country Highs Country Lows

Community

WunderPhotos

Upload Photos

1,850,439 photos uploaded!

WunderBlogs® & News

Nearby

Air Quality

  Air Quality AQ Index Pollutant
Not available.

Snow Depth

Station Depth Elevation

Earthquake Activity

City Distance Mag. Time & Date
Minimum magnitude displayed is 2.5.

Coastal Water Temperatures

Place Temperature

Stations

Nearby Weather Stations

Station Location Temp. Windchill Dew Point Humidity Wind Precip. Elev Updated Type